sensor_id;sensor_type;location;lat;lon;timestamp;temperature;humidity
53520;DHT22;39397;53.204;5.778;2023-08-30T00:00:45;14.10;99.90
53520;DHT22;39397;53.204;5.778;2023-08-30T00:03:11;14.10;99.90
53520;DHT22;39397;53.204;5.778;2023-08-30T00:05:41;14.10;99.90
53520;DHT22;39397;53.204;5.778;2023-08-30T00:08:08;14.10;99.90
53520;DHT22;39397;53.204;5.778;2023-08-30T00:10:34;14.10;99.90
53520;DHT22;39397;53.204;5.778;2023-08-30T00:12:59;13.90;99.90
53520;DHT22;39397;53.204;5.778;2023-08-30T00:15:25;14.00;99.90
53520;DHT22;39397;53.204;5.778;2023-08-30T00:17:51;15.60;99.90
53520;DHT22;39397;53.204;5.778;2023-08-30T00:20:18;14.00;99.90
53520;DHT22;39397;53.204;5.778;2023-08-30T00:22:44;13.90;99.90
53520;DHT22;39397;53.204;5.778;2023-08-30T00:25:10;13.80;99.90
53520;DHT22;39397;53.204;5.778;2023-08-30T00:27:35;13.80;99.90
53520;DHT22;39397;53.204;5.778;2023-08-30T00:30:01;13.80;99.90
53520;DHT22;39397;53.204;5.778;2023-08-30T00:32:27;13.80;99.90
53520;DHT22;39397;53.204;5.778;2023-08-30T00:34:52;13.80;99.90
53520;DHT22;39397;53.204;5.778;2023-08-30T00:37:18;13.70;99.90
53520;DHT22;39397;53.204;5.778;2023-08-30T00:39:44;14.00;99.90
53520;DHT22;39397;53.204;5.778;2023-08-30T00:42:10;13.60;99.90
53520;DHT22;39397;53.204;5.778;2023-08-30T00:44:36;13.60;99.90
53520;DHT22;39397;53.204;5.778;2023-08-30T00:47:02;13.50;99.90
53520;DHT22;39397;53.204;5.778;2023-08-30T00:49:32;13.50;99.90
53520;DHT22;39397;53.204;5.778;2023-08-30T00:52:03;13.50;99.90
53520;DHT22;39397;53.204;5.778;2023-08-30T00:54:30;13.50;99.90
53520;DHT22;39397;53.204;5.778;2023-08-30T00:56:56;13.40;99.90
53520;DHT22;39397;53.204;5.778;2023-08-30T00:59:23;13.40;99.90
53520;DHT22;39397;53.204;5.778;2023-08-30T01:01:50;13.20;99.90
53520;DHT22;39397;53.204;5.778;2023-08-30T01:04:16;13.20;99.90
53520;DHT22;39397;53.204;5.778;2023-08-30T01:06:43;13.30;99.90
53520;DHT22;39397;53.204;5.778;2023-08-30T01:09:09;13.10;99.90
53520;DHT22;39397;53.204;5.778;2023-08-30T01:14:35;13.10;99.90
53520;DHT22;39397;53.204;5.778;2023-08-30T01:17:05;13.20;99.90
53520;DHT22;39397;53.204;5.778;2023-08-30T01:23:05;13.10;99.90
53520;DHT22;39397;53.204;5.778;2023-08-30T01:27:48;13.00;99.90
53520;DHT22;39397;53.204;5.778;2023-08-30T01:30:17;12.80;99.90
53520;DHT22;39397;53.204;5.778;2023-08-30T01:32:44;12.90;99.90
53520;DHT22;39397;53.204;5.778;2023-08-30T01:35:12;12.90;99.90
53520;DHT22;39397;53.204;5.778;2023-08-30T01:37:44;12.90;99.90
53520;DHT22;39397;53.204;5.778;2023-08-30T01:40:11;12.90;99.90
53520;DHT22;39397;53.204;5.778;2023-08-30T01:42:38;12.80;99.90
53520;DHT22;39397;53.204;5.778;2023-08-30T01:45:06;12.90;99.90
53520;DHT22;39397;53.204;5.778;2023-08-30T01:47:35;12.80;99.90
53520;DHT22;39397;53.204;5.778;2023-08-30T01:50:02;12.80;99.90
53520;DHT22;39397;53.204;5.778;2023-08-30T01:52:29;12.70;99.90
53520;DHT22;39397;53.204;5.778;2023-08-30T01:54:57;12.70;99.90
53520;DHT22;39397;53.204;5.778;2023-08-30T01:57:23;12.80;99.90
53520;DHT22;39397;53.204;5.778;2023-08-30T01:59:49;12.90;99.90
53520;DHT22;39397;53.204;5.778;2023-08-30T02:02:16;12.60;99.90
53520;DHT22;39397;53.204;5.778;2023-08-30T02:04:42;12.80;99.90
53520;DHT22;39397;53.204;5.778;2023-08-30T02:07:13;12.70;99.90
53520;DHT22;39397;53.204;5.778;2023-08-30T02:09:50;12.70;99.90
53520;DHT22;39397;53.204;5.778;2023-08-30T02:12:20;12.70;99.90
53520;DHT22;39397;53.204;5.778;2023-08-30T02:14:49;12.60;99.90
53520;DHT22;39397;53.204;5.778;2023-08-30T02:17:15;12.70;99.90
53520;DHT22;39397;53.204;5.778;2023-08-30T02:19:44;12.70;99.90
53520;DHT22;39397;53.204;5.778;2023-08-30T02:22:11;12.70;99.90
53520;DHT22;39397;53.204;5.778;2023-08-30T02:24:36;12.70;99.90
53520;DHT22;39397;53.204;5.778;2023-08-30T02:27:02;12.70;99.90
53520;DHT22;39397;53.204;5.778;2023-08-30T02:29:28;12.70;99.90
53520;DHT22;39397;53.204;5.778;2023-08-30T02:31:54;12.60;99.90
53520;DHT22;39397;53.204;5.778;2023-08-30T02:34:20;12.60;99.90
53520;DHT22;39397;53.204;5.778;2023-08-30T02:36:45;12.70;99.90
53520;DHT22;39397;53.204;5.778;2023-08-30T02:39:14;12.70;99.90
53520;DHT22;39397;53.204;5.778;2023-08-30T02:41:40;12.80;99.90
53520;DHT22;39397;53.204;5.778;2023-08-30T02:44:11;12.70;99.90
53520;DHT22;39397;53.204;5.778;2023-08-30T02:46:37;12.90;99.90
53520;DHT22;39397;53.204;5.778;2023-08-30T02:49:03;12.90;99.90
53520;DHT22;39397;53.204;5.778;2023-08-30T02:51:29;12.80;99.90
53520;DHT22;39397;53.204;5.778;2023-08-30T02:53:54;12.90;99.90
53520;DHT22;39397;53.204;5.778;2023-08-30T02:56:22;12.80;99.90
53520;DHT22;39397;53.204;5.778;2023-08-30T02:58:47;13.00;99.90
53520;DHT22;39397;53.204;5.778;2023-08-30T03:01:13;13.00;99.90
53520;DHT22;39397;53.204;5.778;2023-08-30T03:03:39;13.10;99.90
53520;DHT22;39397;53.204;5.778;2023-08-30T03:06:04;13.80;99.90
53520;DHT22;39397;53.204;5.778;2023-08-30T03:08:30;13.10;99.90
53520;DHT22;39397;53.204;5.778;2023-08-30T03:11:16;13.30;99.90
53520;DHT22;39397;53.204;5.778;2023-08-30T03:13:42;13.20;99.90
53520;DHT22;39397;53.204;5.778;2023-08-30T03:16:12;13.20;99.90
53520;DHT22;39397;53.204;5.778;2023-08-30T03:18:39;13.30;99.90
53520;DHT22;39397;53.204;5.778;2023-08-30T03:21:04;13.50;99.90
53520;DHT22;39397;53.204;5.778;2023-08-30T03:23:31;13.40;99.90
53520;DHT22;39397;53.204;5.778;2023-08-30T03:25:58;13.60;99.90
53520;DHT22;39397;53.204;5.778;2023-08-30T03:28:24;13.40;99.90
53520;DHT22;39397;53.204;5.778;2023-08-30T03:30:49;13.60;99.90
53520;DHT22;39397;53.204;5.778;2023-08-30T03:33:15;13.90;99.90
53520;DHT22;39397;53.204;5.778;2023-08-30T03:35:41;13.90;99.90
53520;DHT22;39397;53.204;5.778;2023-08-30T03:38:07;14.10;99.90
53520;DHT22;39397;53.204;5.778;2023-08-30T03:40:33;14.20;99.90
53520;DHT22;39397;53.204;5.778;2023-08-30T03:42:58;15.80;99.90
53520;DHT22;39397;53.204;5.778;2023-08-30T03:45:24;13.90;99.90
53520;DHT22;39397;53.204;5.778;2023-08-30T03:47:50;13.90;99.90
53520;DHT22;39397;53.204;5.778;2023-08-30T03:50:16;14.30;99.90
53520;DHT22;39397;53.204;5.778;2023-08-30T03:52:41;13.90;99.90
53520;DHT22;39397;53.204;5.778;2023-08-30T03:55:07;13.80;99.90
53520;DHT22;39397;53.204;5.778;2023-08-30T03:57:33;14.00;99.90
53520;DHT22;39397;53.204;5.778;2023-08-30T04:00:00;14.00;99.90
53520;DHT22;39397;53.204;5.778;2023-08-30T04:02:25;14.00;99.90
53520;DHT22;39397;53.204;5.778;2023-08-30T04:04:51;13.90;99.90
53520;DHT22;39397;53.204;5.778;2023-08-30T04:07:17;13.90;99.90
53520;DHT22;39397;53.204;5.778;2023-08-30T04:09:43;14.30;99.90
53520;DHT22;39397;53.204;5.778;2023-08-30T04:12:08;14.30;99.90
53520;DHT22;39397;53.204;5.778;2023-08-30T04:14:34;14.10;99.90
53520;DHT22;39397;53.204;5.778;2023-08-30T04:17:00;13.70;99.90
53520;DHT22;39397;53.204;5.778;2023-08-30T04:19:26;14.30;99.90
53520;DHT22;39397;53.204;5.778;2023-08-30T04:21:51;14.00;99.90
53520;DHT22;39397;53.204;5.778;2023-08-30T04:24:17;14.30;99.90
53520;DHT22;39397;53.204;5.778;2023-08-30T04:26:43;14.00;99.90
53520;DHT22;39397;53.204;5.778;2023-08-30T04:29:09;13.90;99.90
53520;DHT22;39397;53.204;5.778;2023-08-30T04:31:34;13.90;99.90
53520;DHT22;39397;53.204;5.778;2023-08-30T04:34:00;13.20;99.90
53520;DHT22;39397;53.204;5.778;2023-08-30T04:36:26;13.90;99.90
53520;DHT22;39397;53.204;5.778;2023-08-30T04:38:52;13.80;99.90
53520;DHT22;39397;53.204;5.778;2023-08-30T04:41:18;13.80;99.90
53520;DHT22;39397;53.204;5.778;2023-08-30T04:43:44;13.90;99.90
53520;DHT22;39397;53.204;5.778;2023-08-30T04:46:10;13.90;99.90
53520;DHT22;39397;53.204;5.778;2023-08-30T04:48:36;13.80;99.90
53520;DHT22;39397;53.204;5.778;2023-08-30T04:51:02;13.80;99.90
53520;DHT22;39397;53.204;5.778;2023-08-30T04:53:29;13.90;99.90
53520;DHT22;39397;53.204;5.778;2023-08-30T04:55:54;14.00;99.90
53520;DHT22;39397;53.204;5.778;2023-08-30T04:58:20;14.10;99.90
53520;DHT22;39397;53.204;5.778;2023-08-30T05:00:48;14.90;99.90
53520;DHT22;39397;53.204;5.778;2023-08-30T05:03:14;13.90;99.90
53520;DHT22;39397;53.204;5.778;2023-08-30T05:05:40;14.00;99.90
53520;DHT22;39397;53.204;5.778;2023-08-30T05:08:09;14.00;99.90
53520;DHT22;39397;53.204;5.778;2023-08-30T05:10:37;14.00;99.90
53520;DHT22;39397;53.204;5.778;2023-08-30T05:13:03;14.10;99.90
53520;DHT22;39397;53.204;5.778;2023-08-30T05:15:29;14.10;99.90
53520;DHT22;39397;53.204;5.778;2023-08-30T05:17:55;13.90;99.90
53520;DHT22;39397;53.204;5.778;2023-08-30T05:20:20;13.90;99.90
53520;DHT22;39397;53.204;5.778;2023-08-30T05:22:52;13.80;99.90
53520;DHT22;39397;53.204;5.778;2023-08-30T05:25:17;14.00;99.90
53520;DHT22;39397;53.204;5.778;2023-08-30T05:27:43;14.00;99.90
53520;DHT22;39397;53.204;5.778;2023-08-30T05:30:09;11.90;99.90
53520;DHT22;39397;53.204;5.778;2023-08-30T05:32:35;13.90;99.90
53520;DHT22;39397;53.204;5.778;2023-08-30T05:35:01;14.00;99.90
53520;DHT22;39397;53.204;5.778;2023-08-30T05:37:26;14.00;99.90
53520;DHT22;39397;53.204;5.778;2023-08-30T05:39:52;14.00;99.90
53520;DHT22;39397;53.204;5.778;2023-08-30T05:42:17;14.00;99.90
53520;DHT22;39397;53.204;5.778;2023-08-30T05:44:43;14.00;99.90
53520;DHT22;39397;53.204;5.778;2023-08-30T05:47:09;14.00;99.90
53520;DHT22;39397;53.204;5.778;2023-08-30T05:49:40;14.10;99.90
53520;DHT22;39397;53.204;5.778;2023-08-30T05:52:06;14.10;99.90
53520;DHT22;39397;53.204;5.778;2023-08-30T05:54:32;14.00;99.90
53520;DHT22;39397;53.204;5.778;2023-08-30T05:56:59;14.00;99.90
53520;DHT22;39397;53.204;5.778;2023-08-30T05:59:25;14.10;99.90
53520;DHT22;39397;53.204;5.778;2023-08-30T06:01:51;14.00;99.90
53520;DHT22;39397;53.204;5.778;2023-08-30T06:04:16;14.00;99.90
53520;DHT22;39397;53.204;5.778;2023-08-30T06:06:42;13.90;99.90
53520;DHT22;39397;53.204;5.778;2023-08-30T06:09:08;14.00;99.90
53520;DHT22;39397;53.204;5.778;2023-08-30T06:11:33;13.90;99.90
53520;DHT22;39397;53.204;5.778;2023-08-30T06:13:59;13.90;99.90
53520;DHT22;39397;53.204;5.778;2023-08-30T06:16:25;13.80;99.90
53520;DHT22;39397;53.204;5.778;2023-08-30T06:18:51;14.10;99.90
53520;DHT22;39397;53.204;5.778;2023-08-30T06:21:16;14.00;99.90
53520;DHT22;39397;53.204;5.778;2023-08-30T06:23:42;14.20;99.90
53520;DHT22;39397;53.204;5.778;2023-08-30T06:26:08;14.20;99.90
53520;DHT22;39397;53.204;5.778;2023-08-30T06:28:33;14.40;99.90
53520;DHT22;39397;53.204;5.778;2023-08-30T06:30:59;14.40;99.90
53520;DHT22;39397;53.204;5.778;2023-08-30T06:33:25;14.40;99.90
53520;DHT22;39397;53.204;5.778;2023-08-30T06:35:51;14.60;99.90
53520;DHT22;39397;53.204;5.778;2023-08-30T06:38:19;14.60;99.90
53520;DHT22;39397;53.204;5.778;2023-08-30T06:40:45;14.80;99.90
53520;DHT22;39397;53.204;5.778;2023-08-30T06:43:11;14.90;99.90
53520;DHT22;39397;53.204;5.778;2023-08-30T06:45:39;15.10;99.90
53520;DHT22;39397;53.204;5.778;2023-08-30T06:48:06;15.30;99.90
53520;DHT22;39397;53.204;5.778;2023-08-30T06:50:33;15.50;99.90
53520;DHT22;39397;53.204;5.778;2023-08-30T06:52:59;15.60;99.90
53520;DHT22;39397;53.204;5.778;2023-08-30T06:55:25;15.80;99.90
53520;DHT22;39397;53.204;5.778;2023-08-30T06:57:50;16.10;99.90
53520;DHT22;39397;53.204;5.778;2023-08-30T07:00:17;16.20;99.90
53520;DHT22;39397;53.204;5.778;2023-08-30T07:02:43;16.30;99.90
53520;DHT22;39397;53.204;5.778;2023-08-30T07:05:12;16.30;99.90
53520;DHT22;39397;53.204;5.778;2023-08-30T07:07:39;16.40;99.90
53520;DHT22;39397;53.204;5.778;2023-08-30T07:10:05;16.60;99.90
53520;DHT22;39397;53.204;5.778;2023-08-30T07:12:31;16.50;99.90
53520;DHT22;39397;53.204;5.778;2023-08-30T07:14:57;16.50;99.90
53520;DHT22;39397;53.204;5.778;2023-08-30T07:17:22;15.10;99.90
53520;DHT22;39397;53.204;5.778;2023-08-30T07:19:49;16.50;99.90
53520;DHT22;39397;53.204;5.778;2023-08-30T07:22:15;16.50;99.90
53520;DHT22;39397;53.204;5.778;2023-08-30T07:24:44;16.60;99.90
53520;DHT22;39397;53.204;5.778;2023-08-30T07:27:10;16.60;99.90
53520;DHT22;39397;53.204;5.778;2023-08-30T07:29:38;16.60;99.90
53520;DHT22;39397;53.204;5.778;2023-08-30T07:32:06;16.70;99.90
53520;DHT22;39397;53.204;5.778;2023-08-30T07:34:32;16.60;99.90
53520;DHT22;39397;53.204;5.778;2023-08-30T07:36:58;16.60;99.90
53520;DHT22;39397;53.204;5.778;2023-08-30T07:39:24;16.60;99.90
53520;DHT22;39397;53.204;5.778;2023-08-30T07:41:50;16.70;99.90
53520;DHT22;39397;53.204;5.778;2023-08-30T07:44:15;16.70;99.90
53520;DHT22;39397;53.204;5.778;2023-08-30T07:46:41;16.70;99.90
53520;DHT22;39397;53.204;5.778;2023-08-30T07:49:07;16.80;99.90
53520;DHT22;39397;53.204;5.778;2023-08-30T07:51:33;16.90;99.90
53520;DHT22;39397;53.204;5.778;2023-08-30T07:53:59;17.10;99.90
53520;DHT22;39397;53.204;5.778;2023-08-30T07:56:24;17.00;99.90
53520;DHT22;39397;53.204;5.778;2023-08-30T07:58:51;17.20;99.90
53520;DHT22;39397;53.204;5.778;2023-08-30T08:01:17;17.20;99.90
53520;DHT22;39397;53.204;5.778;2023-08-30T08:03:42;17.20;99.90
53520;DHT22;39397;53.204;5.778;2023-08-30T08:06:08;17.40;99.90
53520;DHT22;39397;53.204;5.778;2023-08-30T08:08:34;17.40;99.90
53520;DHT22;39397;53.204;5.778;2023-08-30T08:10:59;17.60;99.90
53520;DHT22;39397;53.204;5.778;2023-08-30T08:13:25;17.50;99.90
53520;DHT22;39397;53.204;5.778;2023-08-30T08:15:51;17.70;99.90
53520;DHT22;39397;53.204;5.778;2023-08-30T08:18:17;17.70;99.90
53520;DHT22;39397;53.204;5.778;2023-08-30T08:20:43;17.50;99.90
53520;DHT22;39397;53.204;5.778;2023-08-30T08:23:09;17.50;99.90
53520;DHT22;39397;53.204;5.778;2023-08-30T08:25:34;17.40;99.90
53520;DHT22;39397;53.204;5.778;2023-08-30T08:28:00;17.20;99.90
53520;DHT22;39397;53.204;5.778;2023-08-30T08:30:26;17.00;99.90
53520;DHT22;39397;53.204;5.778;2023-08-30T08:32:51;16.90;99.90
53520;DHT22;39397;53.204;5.778;2023-08-30T08:35:17;16.90;99.90
53520;DHT22;39397;53.204;5.778;2023-08-30T08:37:43;16.70;99.90
53520;DHT22;39397;53.204;5.778;2023-08-30T08:40:09;16.60;99.90
53520;DHT22;39397;53.204;5.778;2023-08-30T08:42:36;16.50;99.90
53520;DHT22;39397;53.204;5.778;2023-08-30T08:45:03;16.40;99.90
53520;DHT22;39397;53.204;5.778;2023-08-30T08:47:30;16.10;99.90
53520;DHT22;39397;53.204;5.778;2023-08-30T08:49:56;16.10;99.90
53520;DHT22;39397;53.204;5.778;2023-08-30T08:52:26;16.00;99.90
53520;DHT22;39397;53.204;5.778;2023-08-30T08:54:52;16.00;99.90
53520;DHT22;39397;53.204;5.778;2023-08-30T08:57:19;15.90;99.90
53520;DHT22;39397;53.204;5.778;2023-08-30T08:59:44;15.90;99.90
53520;DHT22;39397;53.204;5.778;2023-08-30T09:02:14;15.90;99.90
53520;DHT22;39397;53.204;5.778;2023-08-30T09:04:40;16.10;99.90
53520;DHT22;39397;53.204;5.778;2023-08-30T09:07:06;15.90;99.90
53520;DHT22;39397;53.204;5.778;2023-08-30T09:09:33;15.90;99.90
53520;DHT22;39397;53.204;5.778;2023-08-30T09:11:59;15.80;99.90
53520;DHT22;39397;53.204;5.778;2023-08-30T09:14:24;15.90;99.90
53520;DHT22;39397;53.204;5.778;2023-08-30T09:17:02;15.10;99.90
53520;DHT22;39397;53.204;5.778;2023-08-30T09:19:28;15.90;99.90
53520;DHT22;39397;53.204;5.778;2023-08-30T09:21:57;15.90;99.90
53520;DHT22;39397;53.204;5.778;2023-08-30T09:24:23;15.80;99.90
53520;DHT22;39397;53.204;5.778;2023-08-30T09:26:52;15.70;99.90
53520;DHT22;39397;53.204;5.778;2023-08-30T09:29:19;15.70;99.90
53520;DHT22;39397;53.204;5.778;2023-08-30T09:31:46;15.70;99.90
53520;DHT22;39397;53.204;5.778;2023-08-30T09:34:11;15.60;99.90
53520;DHT22;39397;53.204;5.778;2023-08-30T09:36:38;15.70;99.90
53520;DHT22;39397;53.204;5.778;2023-08-30T09:39:09;15.70;99.90
53520;DHT22;39397;53.204;5.778;2023-08-30T09:41:35;15.60;99.90
53520;DHT22;39397;53.204;5.778;2023-08-30T09:44:14;15.60;99.90
53520;DHT22;39397;53.204;5.778;2023-08-30T09:46:53;15.70;99.90
53520;DHT22;39397;53.204;5.778;2023-08-30T09:52:05;15.70;99.90
53520;DHT22;39397;53.204;5.778;2023-08-30T09:54:38;15.60;99.90
53520;DHT22;39397;53.204;5.778;2023-08-30T09:57:07;15.80;99.90
53520;DHT22;39397;53.204;5.778;2023-08-30T09:59:33;15.80;99.90
53520;DHT22;39397;53.204;5.778;2023-08-30T10:01:59;15.90;99.90
53520;DHT22;39397;53.204;5.778;2023-08-30T10:04:28;16.10;99.90
53520;DHT22;39397;53.204;5.778;2023-08-30T10:06:56;16.20;99.90
53520;DHT22;39397;53.204;5.778;2023-08-30T10:09:24;16.20;99.90
53520;DHT22;39397;53.204;5.778;2023-08-30T10:11:50;16.20;99.90
53520;DHT22;39397;53.204;5.778;2023-08-30T10:14:17;16.00;99.90
53520;DHT22;39397;53.204;5.778;2023-08-30T10:16:47;15.80;99.90
53520;DHT22;39397;53.204;5.778;2023-08-30T10:19:23;15.70;99.90
53520;DHT22;39397;53.204;5.778;2023-08-30T10:22:03;15.70;99.90
53520;DHT22;39397;53.204;5.778;2023-08-30T10:24:32;15.50;99.90
53520;DHT22;39397;53.204;5.778;2023-08-30T10:27:03;15.50;99.90
53520;DHT22;39397;53.204;5.778;2023-08-30T10:29:31;15.50;99.90
53520;DHT22;39397;53.204;5.778;2023-08-30T10:32:06;15.60;99.90
53520;DHT22;39397;53.204;5.778;2023-08-30T10:34:34;15.60;99.90
53520;DHT22;39397;53.204;5.778;2023-08-30T10:37:00;15.60;99.90
53520;DHT22;39397;53.204;5.778;2023-08-30T10:39:34;15.60;99.90
53520;DHT22;39397;53.204;5.778;2023-08-30T10:42:06;15.70;99.90
53520;DHT22;39397;53.204;5.778;2023-08-30T10:44:33;15.70;99.90
53520;DHT22;39397;53.204;5.778;2023-08-30T10:47:02;15.90;99.90
53520;DHT22;39397;53.204;5.778;2023-08-30T10:49:29;16.10;99.90
53520;DHT22;39397;53.204;5.778;2023-08-30T10:52:04;16.40;99.90
53520;DHT22;39397;53.204;5.778;2023-08-30T10:54:37;16.70;99.90
53520;DHT22;39397;53.204;5.778;2023-08-30T10:57:12;17.00;99.90
53520;DHT22;39397;53.204;5.778;2023-08-30T10:59:37;17.20;99.90
53520;DHT22;39397;53.204;5.778;2023-08-30T11:02:03;17.20;99.90
53520;DHT22;39397;53.204;5.778;2023-08-30T11:04:30;17.10;99.90
53520;DHT22;39397;53.204;5.778;2023-08-30T11:06:56;17.20;99.90
53520;DHT22;39397;53.204;5.778;2023-08-30T11:09:23;17.30;99.90
53520;DHT22;39397;53.204;5.778;2023-08-30T11:11:51;17.30;99.90
53520;DHT22;39397;53.204;5.778;2023-08-30T11:14:18;17.30;99.90
53520;DHT22;39397;53.204;5.778;2023-08-30T11:16:45;17.40;99.90
53520;DHT22;39397;53.204;5.778;2023-08-30T11:19:13;17.20;99.90
53520;DHT22;39397;53.204;5.778;2023-08-30T11:21:43;17.20;99.90
53520;DHT22;39397;53.204;5.778;2023-08-30T11:24:09;17.20;99.90
53520;DHT22;39397;53.204;5.778;2023-08-30T11:26:35;17.20;99.90
53520;DHT22;39397;53.204;5.778;2023-08-30T11:29:07;17.20;99.90
53520;DHT22;39397;53.204;5.778;2023-08-30T11:31:34;17.10;99.90
53520;DHT22;39397;53.204;5.778;2023-08-30T11:34:00;17.10;99.90
53520;DHT22;39397;53.204;5.778;2023-08-30T11:36:28;17.10;99.90
53520;DHT22;39397;53.204;5.778;2023-08-30T11:38:54;17.10;99.90
53520;DHT22;39397;53.204;5.778;2023-08-30T11:41:21;17.00;99.90
53520;DHT22;39397;53.204;5.778;2023-08-30T11:43:54;17.00;99.90
53520;DHT22;39397;53.204;5.778;2023-08-30T11:46:20;16.90;99.90
53520;DHT22;39397;53.204;5.778;2023-08-30T11:48:47;16.90;99.90
53520;DHT22;39397;53.204;5.778;2023-08-30T11:51:14;16.90;99.90
53520;DHT22;39397;53.204;5.778;2023-08-30T11:53:40;16.90;99.90
53520;DHT22;39397;53.204;5.778;2023-08-30T11:56:06;16.90;99.90
53520;DHT22;39397;53.204;5.778;2023-08-30T11:58:33;17.10;99.90
53520;DHT22;39397;53.204;5.778;2023-08-30T12:01:00;17.30;99.90
53520;DHT22;39397;53.204;5.778;2023-08-30T12:03:30;17.50;99.90
53520;DHT22;39397;53.204;5.778;2023-08-30T12:05:57;17.60;99.90
53520;DHT22;39397;53.204;5.778;2023-08-30T12:08:25;17.70;99.90
53520;DHT22;39397;53.204;5.778;2023-08-30T12:10:53;17.80;99.90
53520;DHT22;39397;53.204;5.778;2023-08-30T12:13:37;17.90;99.90
53520;DHT22;39397;53.204;5.778;2023-08-30T12:16:03;17.90;99.90
53520;DHT22;39397;53.204;5.778;2023-08-30T12:18:32;18.00;99.90
53520;DHT22;39397;53.204;5.778;2023-08-30T12:21:01;18.10;99.90
53520;DHT22;39397;53.204;5.778;2023-08-30T12:23:32;17.90;99.90
53520;DHT22;39397;53.204;5.778;2023-08-30T12:26:07;17.80;99.90
53520;DHT22;39397;53.204;5.778;2023-08-30T12:28:34;17.90;99.90
53520;DHT22;39397;53.204;5.778;2023-08-30T12:31:00;19.40;99.90
53520;DHT22;39397;53.204;5.778;2023-08-30T12:33:27;17.80;99.90
53520;DHT22;39397;53.204;5.778;2023-08-30T12:35:55;17.90;99.90
53520;DHT22;39397;53.204;5.778;2023-08-30T12:38:22;18.10;99.90
53520;DHT22;39397;53.204;5.778;2023-08-30T12:40:53;16.80;99.90
53520;DHT22;39397;53.204;5.778;2023-08-30T12:43:19;18.30;99.90
53520;DHT22;39397;53.204;5.778;2023-08-30T12:45:46;18.30;99.90
53520;DHT22;39397;53.204;5.778;2023-08-30T12:48:13;18.40;99.90
53520;DHT22;39397;53.204;5.778;2023-08-30T12:50:44;18.40;99.90
53520;DHT22;39397;53.204;5.778;2023-08-30T12:53:10;16.90;99.90
53520;DHT22;39397;53.204;5.778;2023-08-30T12:55:36;17.30;99.90
53520;DHT22;39397;53.204;5.778;2023-08-30T12:58:07;18.60;99.90
53520;DHT22;39397;53.204;5.778;2023-08-30T13:00:34;18.60;99.90
53520;DHT22;39397;53.204;5.778;2023-08-30T13:03:00;18.70;99.90
53520;DHT22;39397;53.204;5.778;2023-08-30T13:05:26;18.60;99.90
53520;DHT22;39397;53.204;5.778;2023-08-30T13:07:52;18.80;99.90
53520;DHT22;39397;53.204;5.778;2023-08-30T13:10:18;18.90;99.90
53520;DHT22;39397;53.204;5.778;2023-08-30T13:12:44;19.00;99.90
53520;DHT22;39397;53.204;5.778;2023-08-30T13:15:10;19.30;99.90
53520;DHT22;39397;53.204;5.778;2023-08-30T13:17:38;19.40;99.90
53520;DHT22;39397;53.204;5.778;2023-08-30T13:20:04;19.40;99.90
53520;DHT22;39397;53.204;5.778;2023-08-30T13:22:30;19.60;99.90
53520;DHT22;39397;53.204;5.778;2023-08-30T13:24:56;19.50;99.90
53520;DHT22;39397;53.204;5.778;2023-08-30T13:27:22;19.50;99.90
53520;DHT22;39397;53.204;5.778;2023-08-30T13:29:48;19.40;99.90
53520;DHT22;39397;53.204;5.778;2023-08-30T13:32:14;19.40;99.90
53520;DHT22;39397;53.204;5.778;2023-08-30T13:34:39;19.30;99.90
53520;DHT22;39397;53.204;5.778;2023-08-30T13:37:05;19.20;99.90
53520;DHT22;39397;53.204;5.778;2023-08-30T13:39:31;19.20;99.90
53520;DHT22;39397;53.204;5.778;2023-08-30T13:41:57;19.50;99.90
53520;DHT22;39397;53.204;5.778;2023-08-30T13:44:23;19.40;99.90
53520;DHT22;39397;53.204;5.778;2023-08-30T13:46:49;19.50;99.90
53520;DHT22;39397;53.204;5.778;2023-08-30T13:49:15;19.50;99.90
53520;DHT22;39397;53.204;5.778;2023-08-30T13:51:41;19.60;99.90
53520;DHT22;39397;53.204;5.778;2023-08-30T13:54:07;19.70;99.90
53520;DHT22;39397;53.204;5.778;2023-08-30T13:56:33;19.70;99.90
53520;DHT22;39397;53.204;5.778;2023-08-30T13:58:59;19.60;99.90
53520;DHT22;39397;53.204;5.778;2023-08-30T14:01:24;19.40;99.90
53520;DHT22;39397;53.204;5.778;2023-08-30T14:03:50;19.30;99.90
53520;DHT22;39397;53.204;5.778;2023-08-30T14:06:16;19.20;99.90
53520;DHT22;39397;53.204;5.778;2023-08-30T14:08:43;19.20;99.90
53520;DHT22;39397;53.204;5.778;2023-08-30T14:11:08;19.10;99.90
53520;DHT22;39397;53.204;5.778;2023-08-30T14:13:34;19.00;99.90
53520;DHT22;39397;53.204;5.778;2023-08-30T14:16:01;18.80;99.90
53520;DHT22;39397;53.204;5.778;2023-08-30T14:18:27;18.60;99.90
53520;DHT22;39397;53.204;5.778;2023-08-30T14:20:56;18.40;99.90
53520;DHT22;39397;53.204;5.778;2023-08-30T14:23:25;18.30;99.90
53520;DHT22;39397;53.204;5.778;2023-08-30T14:26:02;18.20;99.90
53520;DHT22;39397;53.204;5.778;2023-08-30T14:28:34;18.10;99.90
53520;DHT22;39397;53.204;5.778;2023-08-30T14:31:00;18.20;99.90
53520;DHT22;39397;53.204;5.778;2023-08-30T14:33:29;18.40;99.90
53520;DHT22;39397;53.204;5.778;2023-08-30T14:35:54;18.50;99.90
53520;DHT22;39397;53.204;5.778;2023-08-30T14:38:21;18.60;99.90
53520;DHT22;39397;53.204;5.778;2023-08-30T14:40:58;18.50;99.90
53520;DHT22;39397;53.204;5.778;2023-08-30T14:43:23;18.50;99.90
53520;DHT22;39397;53.204;5.778;2023-08-30T14:45:49;18.40;99.90
53520;DHT22;39397;53.204;5.778;2023-08-30T14:48:15;18.60;99.90
53520;DHT22;39397;53.204;5.778;2023-08-30T14:50:40;18.50;99.90
53520;DHT22;39397;53.204;5.778;2023-08-30T14:53:06;18.40;99.90
53520;DHT22;39397;53.204;5.778;2023-08-30T14:55:34;18.50;99.90
53520;DHT22;39397;53.204;5.778;2023-08-30T14:57:59;18.50;99.90
53520;DHT22;39397;53.204;5.778;2023-08-30T15:00:25;18.50;99.90
53520;DHT22;39397;53.204;5.778;2023-08-30T15:02:51;18.50;99.90
53520;DHT22;39397;53.204;5.778;2023-08-30T15:05:17;18.70;99.90
53520;DHT22;39397;53.204;5.778;2023-08-30T15:07:43;18.80;99.90
53520;DHT22;39397;53.204;5.778;2023-08-30T15:10:09;19.30;99.90
53520;DHT22;39397;53.204;5.778;2023-08-30T15:12:35;19.50;99.90
53520;DHT22;39397;53.204;5.778;2023-08-30T15:15:02;19.60;99.90
53520;DHT22;39397;53.204;5.778;2023-08-30T15:17:28;19.90;99.90
53520;DHT22;39397;53.204;5.778;2023-08-30T15:19:53;20.20;99.90
53520;DHT22;39397;53.204;5.778;2023-08-30T15:22:20;20.50;99.90
53520;DHT22;39397;53.204;5.778;2023-08-30T15:24:45;20.70;99.90
53520;DHT22;39397;53.204;5.778;2023-08-30T15:27:11;20.70;99.90
53520;DHT22;39397;53.204;5.778;2023-08-30T15:29:37;20.80;99.90
53520;DHT22;39397;53.204;5.778;2023-08-30T15:42:35;20.40;99.90
53520;DHT22;39397;53.204;5.778;2023-08-30T15:45:01;19.40;99.90
53520;DHT22;39397;53.204;5.778;2023-08-30T15:47:28;19.30;99.90
53520;DHT22;39397;53.204;5.778;2023-08-30T15:49:53;19.40;99.90